sensor_id;sensor_type;location;lat;lon;timestamp;temperature;humidity
4856;DHT22;2442;48.676;7.986;2022-09-29T00:00:20;7.00;99.90
4856;DHT22;2442;48.676;7.986;2022-09-29T00:02:47;7.10;99.90
4856;DHT22;2442;48.676;7.986;2022-09-29T00:05:14;7.20;99.90
4856;DHT22;2442;48.676;7.986;2022-09-29T00:07:41;7.30;99.90
4856;DHT22;2442;48.676;7.986;2022-09-29T00:10:10;7.50;99.90
4856;DHT22;2442;48.676;7.986;2022-09-29T00:12:38;7.40;99.90
4856;DHT22;2442;48.676;7.986;2022-09-29T00:15:06;7.30;99.90
4856;DHT22;2442;48.676;7.986;2022-09-29T00:17:33;7.30;99.90
4856;DHT22;2442;48.676;7.986;2022-09-29T00:20:01;7.20;99.90
4856;DHT22;2442;48.676;7.986;2022-09-29T00:22:28;7.30;99.90
4856;DHT22;2442;48.676;7.986;2022-09-29T00:24:55;7.40;99.90
4856;DHT22;2442;48.676;7.986;2022-09-29T00:27:24;7.50;99.90
4856;DHT22;2442;48.676;7.986;2022-09-29T00:29:51;7.40;99.90
4856;DHT22;2442;48.676;7.986;2022-09-29T00:32:18;7.40;99.90
4856;DHT22;2442;48.676;7.986;2022-09-29T00:34:45;7.30;99.90
4856;DHT22;2442;48.676;7.986;2022-09-29T00:37:12;7.30;99.90
4856;DHT22;2442;48.676;7.986;2022-09-29T00:39:39;7.40;99.90
4856;DHT22;2442;48.676;7.986;2022-09-29T00:42:08;7.50;99.90
4856;DHT22;2442;48.676;7.986;2022-09-29T00:45:00;7.60;99.90
4856;DHT22;2442;48.676;7.986;2022-09-29T00:47:34;7.50;99.90
4856;DHT22;2442;48.676;7.986;2022-09-29T00:50:08;7.40;99.90
4856;DHT22;2442;48.676;7.986;2022-09-29T00:52:41;7.50;99.90
4856;DHT22;2442;48.676;7.986;2022-09-29T00:55:15;7.60;99.90
4856;DHT22;2442;48.676;7.986;2022-09-29T00:57:47;7.80;99.90
4856;DHT22;2442;48.676;7.986;2022-09-29T01:00:17;8.00;99.90
4856;DHT22;2442;48.676;7.986;2022-09-29T01:02:47;8.00;99.90
4856;DHT22;2442;48.676;7.986;2022-09-29T01:05:19;8.10;99.90
4856;DHT22;2442;48.676;7.986;2022-09-29T01:07:48;8.20;99.90
4856;DHT22;2442;48.676;7.986;2022-09-29T01:10:16;8.20;99.90
4856;DHT22;2442;48.676;7.986;2022-09-29T01:12:46;8.20;99.90
4856;DHT22;2442;48.676;7.986;2022-09-29T01:15:17;8.20;99.90
4856;DHT22;2442;48.676;7.986;2022-09-29T01:17:45;8.20;99.90
4856;DHT22;2442;48.676;7.986;2022-09-29T01:20:16;8.10;99.90
4856;DHT22;2442;48.676;7.986;2022-09-29T01:23:11;8.10;99.90
4856;DHT22;2442;48.676;7.986;2022-09-29T01:29:37;8.20;99.90
4856;DHT22;2442;48.676;7.986;2022-09-29T01:32:18;8.30;99.90
4856;DHT22;2442;48.676;7.986;2022-09-29T01:34:58;8.20;99.90
4856;DHT22;2442;48.676;7.986;2022-09-29T01:37:34;7.90;99.90
4856;DHT22;2442;48.676;7.986;2022-09-29T01:40:13;8.00;99.90
4856;DHT22;2442;48.676;7.986;2022-09-29T01:42:48;7.90;99.90
4856;DHT22;2442;48.676;7.986;2022-09-29T01:45:22;7.70;99.90
4856;DHT22;2442;48.676;7.986;2022-09-29T01:47:56;7.70;99.90
4856;DHT22;2442;48.676;7.986;2022-09-29T01:50:28;7.80;99.90
4856;DHT22;2442;48.676;7.986;2022-09-29T01:53:01;7.70;99.90
4856;DHT22;2442;48.676;7.986;2022-09-29T01:55:32;7.50;99.90
4856;DHT22;2442;48.676;7.986;2022-09-29T01:58:04;7.40;99.90
4856;DHT22;2442;48.676;7.986;2022-09-29T02:00:36;7.50;99.90
4856;DHT22;2442;48.676;7.986;2022-09-29T02:03:10;7.40;99.90
4856;DHT22;2442;48.676;7.986;2022-09-29T02:05:43;7.50;99.90
4856;DHT22;2442;48.676;7.986;2022-09-29T02:08:13;7.50;99.90
4856;DHT22;2442;48.676;7.986;2022-09-29T02:10:47;7.20;99.90
4856;DHT22;2442;48.676;7.986;2022-09-29T02:13:17;7.10;99.90
4856;DHT22;2442;48.676;7.986;2022-09-29T02:15:47;7.10;99.90
4856;DHT22;2442;48.676;7.986;2022-09-29T02:18:21;7.10;99.90
4856;DHT22;2442;48.676;7.986;2022-09-29T02:20:50;7.20;99.90
4856;DHT22;2442;48.676;7.986;2022-09-29T02:23:17;7.20;99.90
4856;DHT22;2442;48.676;7.986;2022-09-29T02:25:46;7.30;99.90
4856;DHT22;2442;48.676;7.986;2022-09-29T02:28:14;7.30;99.90
4856;DHT22;2442;48.676;7.986;2022-09-29T02:30:42;7.30;99.90
4856;DHT22;2442;48.676;7.986;2022-09-29T02:33:19;7.30;99.90
4856;DHT22;2442;48.676;7.986;2022-09-29T02:35:55;7.30;99.90
4856;DHT22;2442;48.676;7.986;2022-09-29T02:38:34;7.20;99.90
4856;DHT22;2442;48.676;7.986;2022-09-29T02:41:19;7.30;99.90
4856;DHT22;2442;48.676;7.986;2022-09-29T02:44:09;7.40;99.90
4856;DHT22;2442;48.676;7.986;2022-09-29T02:47:01;7.60;99.90
4856;DHT22;2442;48.676;7.986;2022-09-29T02:49:49;7.70;99.90
4856;DHT22;2442;48.676;7.986;2022-09-29T02:52:29;7.60;99.90
4856;DHT22;2442;48.676;7.986;2022-09-29T02:55:10;7.70;99.90
4856;DHT22;2442;48.676;7.986;2022-09-29T02:57:48;7.60;99.90
4856;DHT22;2442;48.676;7.986;2022-09-29T03:00:17;7.70;99.90
4856;DHT22;2442;48.676;7.986;2022-09-29T03:02:45;7.70;99.90
4856;DHT22;2442;48.676;7.986;2022-09-29T03:05:15;7.70;99.90
4856;DHT22;2442;48.676;7.986;2022-09-29T03:07:43;7.80;99.90
4856;DHT22;2442;48.676;7.986;2022-09-29T03:10:12;7.90;99.90
4856;DHT22;2442;48.676;7.986;2022-09-29T03:12:40;7.80;99.90
4856;DHT22;2442;48.676;7.986;2022-09-29T03:15:09;7.80;99.90
4856;DHT22;2442;48.676;7.986;2022-09-29T03:17:37;7.80;99.90
4856;DHT22;2442;48.676;7.986;2022-09-29T03:20:05;7.90;99.90
4856;DHT22;2442;48.676;7.986;2022-09-29T03:22:34;7.90;99.90
4856;DHT22;2442;48.676;7.986;2022-09-29T03:25:01;7.80;99.90
4856;DHT22;2442;48.676;7.986;2022-09-29T03:27:31;7.80;99.90
4856;DHT22;2442;48.676;7.986;2022-09-29T03:29:58;7.90;99.90
4856;DHT22;2442;48.676;7.986;2022-09-29T03:32:25;7.90;99.90
4856;DHT22;2442;48.676;7.986;2022-09-29T03:34:52;7.90;99.90
4856;DHT22;2442;48.676;7.986;2022-09-29T03:37:19;8.00;99.90
4856;DHT22;2442;48.676;7.986;2022-09-29T03:39:48;8.10;99.90
4856;DHT22;2442;48.676;7.986;2022-09-29T03:42:15;8.20;99.90
4856;DHT22;2442;48.676;7.986;2022-09-29T03:44:42;8.20;99.90
4856;DHT22;2442;48.676;7.986;2022-09-29T03:47:09;8.10;99.90
4856;DHT22;2442;48.676;7.986;2022-09-29T03:49:36;8.10;99.90
4856;DHT22;2442;48.676;7.986;2022-09-29T03:52:03;8.10;99.90
4856;DHT22;2442;48.676;7.986;2022-09-29T03:54:30;8.10;99.90
4856;DHT22;2442;48.676;7.986;2022-09-29T03:56:58;8.10;99.90
4856;DHT22;2442;48.676;7.986;2022-09-29T03:59:25;8.10;99.90
4856;DHT22;2442;48.676;7.986;2022-09-29T04:01:52;8.00;99.90
4856;DHT22;2442;48.676;7.986;2022-09-29T04:04:19;8.00;99.90
4856;DHT22;2442;48.676;7.986;2022-09-29T04:06:46;8.00;99.90
4856;DHT22;2442;48.676;7.986;2022-09-29T04:09:13;7.90;99.90
4856;DHT22;2442;48.676;7.986;2022-09-29T04:11:40;7.80;99.90
4856;DHT22;2442;48.676;7.986;2022-09-29T04:14:09;7.80;99.90
4856;DHT22;2442;48.676;7.986;2022-09-29T04:16:36;7.80;99.90
4856;DHT22;2442;48.676;7.986;2022-09-29T04:19:03;7.80;99.90
4856;DHT22;2442;48.676;7.986;2022-09-29T04:21:30;7.70;99.90
4856;DHT22;2442;48.676;7.986;2022-09-29T04:23:57;7.80;99.90
4856;DHT22;2442;48.676;7.986;2022-09-29T04:26:24;7.80;99.90
4856;DHT22;2442;48.676;7.986;2022-09-29T04:28:51;7.60;99.90
4856;DHT22;2442;48.676;7.986;2022-09-29T04:31:19;7.50;99.90
4856;DHT22;2442;48.676;7.986;2022-09-29T04:33:46;7.40;99.90
4856;DHT22;2442;48.676;7.986;2022-09-29T04:36:13;7.40;99.90
4856;DHT22;2442;48.676;7.986;2022-09-29T04:38:40;7.60;99.90
4856;DHT22;2442;48.676;7.986;2022-09-29T04:41:07;7.70;99.90
4856;DHT22;2442;48.676;7.986;2022-09-29T04:43:34;7.80;99.90
4856;DHT22;2442;48.676;7.986;2022-09-29T04:46:03;7.80;99.90
4856;DHT22;2442;48.676;7.986;2022-09-29T04:48:33;7.70;99.90
4856;DHT22;2442;48.676;7.986;2022-09-29T04:51:04;7.60;99.90
4856;DHT22;2442;48.676;7.986;2022-09-29T04:53:32;7.60;99.90
4856;DHT22;2442;48.676;7.986;2022-09-29T04:56:04;7.50;99.90
4856;DHT22;2442;48.676;7.986;2022-09-29T04:58:32;7.40;99.90
4856;DHT22;2442;48.676;7.986;2022-09-29T05:01:04;7.40;99.90
4856;DHT22;2442;48.676;7.986;2022-09-29T05:03:34;7.30;99.90
4856;DHT22;2442;48.676;7.986;2022-09-29T05:06:01;7.30;99.90
4856;DHT22;2442;48.676;7.986;2022-09-29T05:08:28;7.40;99.90
4856;DHT22;2442;48.676;7.986;2022-09-29T05:10:55;7.30;99.90
4856;DHT22;2442;48.676;7.986;2022-09-29T05:13:22;7.30;99.90
4856;DHT22;2442;48.676;7.986;2022-09-29T05:15:53;7.30;99.90
4856;DHT22;2442;48.676;7.986;2022-09-29T05:18:21;7.20;99.90
4856;DHT22;2442;48.676;7.986;2022-09-29T05:20:49;7.10;99.90
4856;DHT22;2442;48.676;7.986;2022-09-29T05:23:16;7.00;99.90
4856;DHT22;2442;48.676;7.986;2022-09-29T05:25:43;7.00;99.90
4856;DHT22;2442;48.676;7.986;2022-09-29T05:28:11;7.00;99.90
4856;DHT22;2442;48.676;7.986;2022-09-29T05:30:39;7.20;99.90
4856;DHT22;2442;48.676;7.986;2022-09-29T05:33:07;7.30;99.90
4856;DHT22;2442;48.676;7.986;2022-09-29T05:35:34;7.20;99.90
4856;DHT22;2442;48.676;7.986;2022-09-29T05:38:02;7.20;99.90
4856;DHT22;2442;48.676;7.986;2022-09-29T05:40:29;7.10;99.90
4856;DHT22;2442;48.676;7.986;2022-09-29T05:42:58;7.10;99.90
4856;DHT22;2442;48.676;7.986;2022-09-29T05:45:26;7.00;99.90
4856;DHT22;2442;48.676;7.986;2022-09-29T05:47:53;7.10;99.90
4856;DHT22;2442;48.676;7.986;2022-09-29T05:50:20;7.10;99.90
4856;DHT22;2442;48.676;7.986;2022-09-29T05:52:48;7.10;99.90
4856;DHT22;2442;48.676;7.986;2022-09-29T05:55:17;7.00;99.90
4856;DHT22;2442;48.676;7.986;2022-09-29T05:57:47;6.90;99.90
4856;DHT22;2442;48.676;7.986;2022-09-29T06:00:15;6.90;99.90
4856;DHT22;2442;48.676;7.986;2022-09-29T06:02:42;6.80;99.90
4856;DHT22;2442;48.676;7.986;2022-09-29T06:05:09;6.90;99.90
4856;DHT22;2442;48.676;7.986;2022-09-29T06:07:36;6.90;99.90
4856;DHT22;2442;48.676;7.986;2022-09-29T06:10:03;6.90;99.90
4856;DHT22;2442;48.676;7.986;2022-09-29T06:12:34;7.00;99.90
4856;DHT22;2442;48.676;7.986;2022-09-29T06:15:02;7.10;99.90
4856;DHT22;2442;48.676;7.986;2022-09-29T06:17:30;7.10;99.90
4856;DHT22;2442;48.676;7.986;2022-09-29T06:19:57;7.10;99.90
4856;DHT22;2442;48.676;7.986;2022-09-29T06:22:24;7.20;99.90
4856;DHT22;2442;48.676;7.986;2022-09-29T06:24:52;7.30;99.90
4856;DHT22;2442;48.676;7.986;2022-09-29T06:27:19;7.40;99.90
4856;DHT22;2442;48.676;7.986;2022-09-29T06:29:48;7.40;99.90
4856;DHT22;2442;48.676;7.986;2022-09-29T06:32:15;7.50;99.90
4856;DHT22;2442;48.676;7.986;2022-09-29T06:34:42;7.60;99.90
4856;DHT22;2442;48.676;7.986;2022-09-29T06:37:23;7.70;99.90
4856;DHT22;2442;48.676;7.986;2022-09-29T06:40:05;7.80;99.90
4856;DHT22;2442;48.676;7.986;2022-09-29T06:42:33;7.90;99.90
4856;DHT22;2442;48.676;7.986;2022-09-29T06:45:02;7.90;99.90
4856;DHT22;2442;48.676;7.986;2022-09-29T06:47:29;8.00;99.90
4856;DHT22;2442;48.676;7.986;2022-09-29T06:49:57;8.00;99.90
4856;DHT22;2442;48.676;7.986;2022-09-29T06:52:26;8.10;99.90
4856;DHT22;2442;48.676;7.986;2022-09-29T06:54:54;8.30;99.90
4856;DHT22;2442;48.676;7.986;2022-09-29T06:57:21;8.50;99.90
4856;DHT22;2442;48.676;7.986;2022-09-29T06:59:48;8.40;99.90
4856;DHT22;2442;48.676;7.986;2022-09-29T07:02:16;8.50;99.90
4856;DHT22;2442;48.676;7.986;2022-09-29T07:04:43;8.50;99.90
4856;DHT22;2442;48.676;7.986;2022-09-29T07:07:12;8.60;99.90
4856;DHT22;2442;48.676;7.986;2022-09-29T07:09:39;8.60;99.90
4856;DHT22;2442;48.676;7.986;2022-09-29T07:12:07;8.80;99.90
4856;DHT22;2442;48.676;7.986;2022-09-29T07:14:36;8.80;99.90
4856;DHT22;2442;48.676;7.986;2022-09-29T07:17:03;8.80;99.90
4856;DHT22;2442;48.676;7.986;2022-09-29T07:19:32;8.80;99.90
4856;DHT22;2442;48.676;7.986;2022-09-29T07:21:59;8.80;99.90
4856;DHT22;2442;48.676;7.986;2022-09-29T07:24:26;8.80;99.90
4856;DHT22;2442;48.676;7.986;2022-09-29T07:26:53;8.90;99.90
4856;DHT22;2442;48.676;7.986;2022-09-29T07:29:20;8.80;99.90
4856;DHT22;2442;48.676;7.986;2022-09-29T07:31:47;8.60;99.90
4856;DHT22;2442;48.676;7.986;2022-09-29T07:34:17;8.70;99.90
4856;DHT22;2442;48.676;7.986;2022-09-29T07:36:45;8.70;99.90
4856;DHT22;2442;48.676;7.986;2022-09-29T07:39:12;9.00;99.90
4856;DHT22;2442;48.676;7.986;2022-09-29T07:41:39;9.20;99.90
4856;DHT22;2442;48.676;7.986;2022-09-29T07:44:06;9.20;99.90
4856;DHT22;2442;48.676;7.986;2022-09-29T07:46:33;9.20;99.90
4856;DHT22;2442;48.676;7.986;2022-09-29T07:49:00;9.10;99.90
4856;DHT22;2442;48.676;7.986;2022-09-29T07:51:27;9.00;99.90
4856;DHT22;2442;48.676;7.986;2022-09-29T07:54:00;9.20;99.90
4856;DHT22;2442;48.676;7.986;2022-09-29T07:56:28;9.30;99.90
4856;DHT22;2442;48.676;7.986;2022-09-29T07:58:56;9.60;99.90
4856;DHT22;2442;48.676;7.986;2022-09-29T08:01:23;9.60;99.90
4856;DHT22;2442;48.676;7.986;2022-09-29T08:03:53;9.80;99.90
4856;DHT22;2442;48.676;7.986;2022-09-29T08:08:50;10.00;99.90
4856;DHT22;2442;48.676;7.986;2022-09-29T08:11:20;10.00;99.90
4856;DHT22;2442;48.676;7.986;2022-09-29T08:13:49;10.10;99.90
4856;DHT22;2442;48.676;7.986;2022-09-29T08:16:16;10.20;99.90
4856;DHT22;2442;48.676;7.986;2022-09-29T08:18:43;10.00;99.90
4856;DHT22;2442;48.676;7.986;2022-09-29T08:21:11;10.00;99.90
4856;DHT22;2442;48.676;7.986;2022-09-29T08:23:40;10.00;99.90
4856;DHT22;2442;48.676;7.986;2022-09-29T08:26:09;10.00;99.90
4856;DHT22;2442;48.676;7.986;2022-09-29T08:28:38;10.20;99.90
4856;DHT22;2442;48.676;7.986;2022-09-29T08:31:07;10.40;99.90
4856;DHT22;2442;48.676;7.986;2022-09-29T08:33:35;10.50;99.90
4856;DHT22;2442;48.676;7.986;2022-09-29T08:36:04;10.60;99.90
4856;DHT22;2442;48.676;7.986;2022-09-29T08:38:40;10.60;99.90
4856;DHT22;2442;48.676;7.986;2022-09-29T08:41:18;10.60;99.90
4856;DHT22;2442;48.676;7.986;2022-09-29T08:43:54;10.60;99.90
4856;DHT22;2442;48.676;7.986;2022-09-29T08:46:27;10.90;99.90
4856;DHT22;2442;48.676;7.986;2022-09-29T08:48:56;11.00;99.90
4856;DHT22;2442;48.676;7.986;2022-09-29T08:51:29;11.20;99.90
4856;DHT22;2442;48.676;7.986;2022-09-29T08:54:05;11.40;99.90
4856;DHT22;2442;48.676;7.986;2022-09-29T08:56:34;11.50;99.90
4856;DHT22;2442;48.676;7.986;2022-09-29T08:59:03;11.70;99.90
4856;DHT22;2442;48.676;7.986;2022-09-29T09:01:36;11.70;99.90
4856;DHT22;2442;48.676;7.986;2022-09-29T09:04:39;11.70;99.90
4856;DHT22;2442;48.676;7.986;2022-09-29T09:07:19;12.20;99.90
4856;DHT22;2442;48.676;7.986;2022-09-29T09:10:02;12.20;99.90
4856;DHT22;2442;48.676;7.986;2022-09-29T09:12:48;12.30;99.90
4856;DHT22;2442;48.676;7.986;2022-09-29T09:15:48;12.50;99.90
4856;DHT22;2442;48.676;7.986;2022-09-29T09:18:53;12.50;99.90
4856;DHT22;2442;48.676;7.986;2022-09-29T09:21:40;12.90;99.90
4856;DHT22;2442;48.676;7.986;2022-09-29T09:24:15;13.10;99.90
4856;DHT22;2442;48.676;7.986;2022-09-29T09:26:45;13.40;99.90
4856;DHT22;2442;48.676;7.986;2022-09-29T09:29:18;13.10;99.90
4856;DHT22;2442;48.676;7.986;2022-09-29T09:31:55;13.10;99.90
4856;DHT22;2442;48.676;7.986;2022-09-29T09:34:29;13.20;99.90
4856;DHT22;2442;48.676;7.986;2022-09-29T09:37:03;13.20;99.90
4856;DHT22;2442;48.676;7.986;2022-09-29T09:39:34;13.30;99.90
4856;DHT22;2442;48.676;7.986;2022-09-29T09:42:06;13.40;99.90
4856;DHT22;2442;48.676;7.986;2022-09-29T09:44:41;13.50;99.90
4856;DHT22;2442;48.676;7.986;2022-09-29T09:47:22;13.70;99.90
4856;DHT22;2442;48.676;7.986;2022-09-29T09:49:55;13.80;99.90
4856;DHT22;2442;48.676;7.986;2022-09-29T09:52:28;14.00;99.90
4856;DHT22;2442;48.676;7.986;2022-09-29T09:54:59;14.10;99.90
4856;DHT22;2442;48.676;7.986;2022-09-29T09:57:55;13.90;99.90
4856;DHT22;2442;48.676;7.986;2022-09-29T10:00:45;13.80;99.90
4856;DHT22;2442;48.676;7.986;2022-09-29T10:03:16;14.00;99.90
4856;DHT22;2442;48.676;7.986;2022-09-29T10:05:44;13.80;99.90
4856;DHT22;2442;48.676;7.986;2022-09-29T10:08:17;14.20;99.90
4856;DHT22;2442;48.676;7.986;2022-09-29T10:10:48;14.10;99.90
4856;DHT22;2442;48.676;7.986;2022-09-29T10:13:15;14.40;99.90
4856;DHT22;2442;48.676;7.986;2022-09-29T10:15:46;14.50;99.90
4856;DHT22;2442;48.676;7.986;2022-09-29T10:18:19;14.40;99.90
4856;DHT22;2442;48.676;7.986;2022-09-29T10:20:48;13.70;99.90
4856;DHT22;2442;48.676;7.986;2022-09-29T10:23:27;13.60;99.90
4856;DHT22;2442;48.676;7.986;2022-09-29T10:26:07;13.40;99.90
4856;DHT22;2442;48.676;7.986;2022-09-29T10:28:42;13.50;99.90
4856;DHT22;2442;48.676;7.986;2022-09-29T10:31:23;13.70;99.90
4856;DHT22;2442;48.676;7.986;2022-09-29T10:33:56;14.00;99.90
4856;DHT22;2442;48.676;7.986;2022-09-29T10:36:25;13.90;99.90
4856;DHT22;2442;48.676;7.986;2022-09-29T10:38:54;14.00;99.90
4856;DHT22;2442;48.676;7.986;2022-09-29T10:41:23;14.10;99.90
4856;DHT22;2442;48.676;7.986;2022-09-29T10:43:51;14.40;99.90
4856;DHT22;2442;48.676;7.986;2022-09-29T10:46:47;14.60;99.90
4856;DHT22;2442;48.676;7.986;2022-09-29T10:49:19;14.60;99.90
4856;DHT22;2442;48.676;7.986;2022-09-29T10:51:54;14.60;99.90
4856;DHT22;2442;48.676;7.986;2022-09-29T10:54:24;14.70;99.90
4856;DHT22;2442;48.676;7.986;2022-09-29T10:56:53;14.70;99.90
4856;DHT22;2442;48.676;7.986;2022-09-29T10:59:22;14.30;99.90
4856;DHT22;2442;48.676;7.986;2022-09-29T11:01:54;14.30;99.90
4856;DHT22;2442;48.676;7.986;2022-09-29T11:04:26;14.20;99.90
4856;DHT22;2442;48.676;7.986;2022-09-29T11:06:56;14.30;99.90
4856;DHT22;2442;48.676;7.986;2022-09-29T11:09:37;14.30;99.90
4856;DHT22;2442;48.676;7.986;2022-09-29T11:12:11;14.10;99.90
4856;DHT22;2442;48.676;7.986;2022-09-29T11:14:51;14.10;99.90
4856;DHT22;2442;48.676;7.986;2022-09-29T11:17:21;14.10;99.90
4856;DHT22;2442;48.676;7.986;2022-09-29T11:19:52;14.10;99.90
4856;DHT22;2442;48.676;7.986;2022-09-29T11:29:00;14.20;99.90
4856;DHT22;2442;48.676;7.986;2022-09-29T11:31:45;14.10;99.90
4856;DHT22;2442;48.676;7.986;2022-09-29T11:37:34;14.00;99.90
4856;DHT22;2442;48.676;7.986;2022-09-29T11:40:11;14.00;99.90
4856;DHT22;2442;48.676;7.986;2022-09-29T11:42:55;14.10;99.90
4856;DHT22;2442;48.676;7.986;2022-09-29T11:45:35;14.30;99.90
4856;DHT22;2442;48.676;7.986;2022-09-29T11:51:16;14.50;99.90
4856;DHT22;2442;48.676;7.986;2022-09-29T11:54:12;14.30;99.90
4856;DHT22;2442;48.676;7.986;2022-09-29T11:56:52;14.50;99.90
4856;DHT22;2442;48.676;7.986;2022-09-29T11:59:55;14.70;99.90
4856;DHT22;2442;48.676;7.986;2022-09-29T12:02:58;14.90;99.90
4856;DHT22;2442;48.676;7.986;2022-09-29T12:05:46;14.60;99.90
4856;DHT22;2442;48.676;7.986;2022-09-29T12:08:27;14.70;99.90
4856;DHT22;2442;48.676;7.986;2022-09-29T12:11:04;14.70;99.90
4856;DHT22;2442;48.676;7.986;2022-09-29T12:13:41;14.30;99.90
4856;DHT22;2442;48.676;7.986;2022-09-29T12:16:13;14.30;99.90
4856;DHT22;2442;48.676;7.986;2022-09-29T12:18:46;14.40;99.90
4856;DHT22;2442;48.676;7.986;2022-09-29T12:21:24;14.40;99.90
4856;DHT22;2442;48.676;7.986;2022-09-29T12:23:56;14.60;99.90
4856;DHT22;2442;48.676;7.986;2022-09-29T12:26:24;14.70;99.90
4856;DHT22;2442;48.676;7.986;2022-09-29T12:28:58;15.00;99.90
4856;DHT22;2442;48.676;7.986;2022-09-29T12:31:30;15.30;99.90
4856;DHT22;2442;48.676;7.986;2022-09-29T12:34:03;15.30;99.90
4856;DHT22;2442;48.676;7.986;2022-09-29T12:36:39;15.20;99.90
4856;DHT22;2442;48.676;7.986;2022-09-29T12:39:29;15.40;99.90
4856;DHT22;2442;48.676;7.986;2022-09-29T12:42:10;15.40;99.90
4856;DHT22;2442;48.676;7.986;2022-09-29T12:44:44;15.50;99.90
4856;DHT22;2442;48.676;7.986;2022-09-29T12:47:19;15.20;99.90
4856;DHT22;2442;48.676;7.986;2022-09-29T12:49:59;15.40;99.90
4856;DHT22;2442;48.676;7.986;2022-09-29T12:52:35;15.40;99.90
4856;DHT22;2442;48.676;7.986;2022-09-29T12:55:16;15.50;99.90
4856;DHT22;2442;48.676;7.986;2022-09-29T12:57:48;15.50;99.90
4856;DHT22;2442;48.676;7.986;2022-09-29T13:00:17;15.40;99.90
4856;DHT22;2442;48.676;7.986;2022-09-29T13:09:56;15.20;99.90
4856;DHT22;2442;48.676;7.986;2022-09-29T13:12:54;15.00;99.90
4856;DHT22;2442;48.676;7.986;2022-09-29T13:15:45;15.00;99.90
4856;DHT22;2442;48.676;7.986;2022-09-29T13:18:35;14.70;99.90
4856;DHT22;2442;48.676;7.986;2022-09-29T13:21:19;14.90;99.90
4856;DHT22;2442;48.676;7.986;2022-09-29T13:24:00;14.80;99.90
4856;DHT22;2442;48.676;7.986;2022-09-29T13:26:53;14.90;99.90
4856;DHT22;2442;48.676;7.986;2022-09-29T13:29:30;14.80;99.90
4856;DHT22;2442;48.676;7.986;2022-09-29T13:31:58;14.80;99.90
4856;DHT22;2442;48.676;7.986;2022-09-29T13:34:30;14.70;99.90
4856;DHT22;2442;48.676;7.986;2022-09-29T13:37:11;14.80;99.90
4856;DHT22;2442;48.676;7.986;2022-09-29T13:39:41;14.90;99.90
4856;DHT22;2442;48.676;7.986;2022-09-29T13:42:31;14.80;99.90
4856;DHT22;2442;48.676;7.986;2022-09-29T13:45:42;14.80;99.90
4856;DHT22;2442;48.676;7.986;2022-09-29T13:48:46;15.10;99.90
4856;DHT22;2442;48.676;7.986;2022-09-29T13:51:39;15.10;99.90
4856;DHT22;2442;48.676;7.986;2022-09-29T13:54:31;15.00;99.90
4856;DHT22;2442;48.676;7.986;2022-09-29T14:00:18;15.20;99.90
4856;DHT22;2442;48.676;7.986;2022-09-29T14:02:59;15.20;99.90
4856;DHT22;2442;48.676;7.986;2022-09-29T14:05:43;15.20;99.90
4856;DHT22;2442;48.676;7.986;2022-09-29T14:08:18;15.30;99.90
4856;DHT22;2442;48.676;7.986;2022-09-29T14:10:51;15.30;99.90
4856;DHT22;2442;48.676;7.986;2022-09-29T14:13:24;15.30;99.90
4856;DHT22;2442;48.676;7.986;2022-09-29T14:16:04;15.30;99.90
4856;DHT22;2442;48.676;7.986;2022-09-29T14:18:42;15.20;99.90
4856;DHT22;2442;48.676;7.986;2022-09-29T14:21:14;15.20;99.90
4856;DHT22;2442;48.676;7.986;2022-09-29T14:24:43;15.20;99.90
4856;DHT22;2442;48.676;7.986;2022-09-29T14:27:27;15.20;99.90
4856;DHT22;2442;48.676;7.986;2022-09-29T14:30:10;15.30;99.90
4856;DHT22;2442;48.676;7.986;2022-09-29T14:32:47;15.30;99.90
4856;DHT22;2442;48.676;7.986;2022-09-29T14:35:24;15.40;99.90
4856;DHT22;2442;48.676;7.986;2022-09-29T14:38:01;15.30;99.90
4856;DHT22;2442;48.676;7.986;2022-09-29T14:40:31;15.30;99.90
4856;DHT22;2442;48.676;7.986;2022-09-29T14:43:07;15.10;99.90
4856;DHT22;2442;48.676;7.986;2022-09-29T14:45:48;15.30;99.90
4856;DHT22;2442;48.676;7.986;2022-09-29T14:49:00;15.20;99.90
4856;DHT22;2442;48.676;7.986;2022-09-29T14:51:56;15.50;99.90
4856;DHT22;2442;48.676;7.986;2022-09-29T14:54:44;15.40;99.90
4856;DHT22;2442;48.676;7.986;2022-09-29T14:57:31;15.50;99.90
4856;DHT22;2442;48.676;7.986;2022-09-29T15:00:11;15.50;99.90
4856;DHT22;2442;48.676;7.986;2022-09-29T15:02:42;15.30;99.90
4856;DHT22;2442;48.676;7.986;2022-09-29T15:05:20;15.30;99.90
4856;DHT22;2442;48.676;7.986;2022-09-29T15:07:51;15.40;99.90
4856;DHT22;2442;48.676;7.986;2022-09-29T15:10:24;15.10;99.90
4856;DHT22;2442;48.676;7.986;2022-09-29T15:13:13;15.10;99.90
4856;DHT22;2442;48.676;7.986;2022-09-29T15:15:40;14.90;99.90
4856;DHT22;2442;48.676;7.986;2022-09-29T15:18:21;14.70;99.90
4856;DHT22;2442;48.676;7.986;2022-09-29T15:20:59;14.70;99.90
4856;DHT22;2442;48.676;7.986;2022-09-29T15:23:46;14.80;99.90
4856;DHT22;2442;48.676;7.986;2022-09-29T15:26:26;14.90;99.90
4856;DHT22;2442;48.676;7.986;2022-09-29T15:28:57;15.00;99.90
4856;DHT22;2442;48.676;7.986;2022-09-29T15:31:27;15.00;99.90
4856;DHT22;2442;48.676;7.986;2022-09-29T15:33:59;14.90;99.90
4856;DHT22;2442;48.676;7.986;2022-09-29T15:36:31;15.00;99.90
4856;DHT22;2442;48.676;7.986;2022-09-29T15:39:02;15.20;99.90
4856;DHT22;2442;48.676;7.986;2022-09-29T15:41:34;15.40;99.90
4856;DHT22;2442;48.676;7.986;2022-09-29T15:44:07;15.40;99.90
4856;DHT22;2442;48.676;7.986;2022-09-29T15:46:45;15.50;99.90
4856;DHT22;2442;48.676;7.986;2022-09-29T15:49:16;15.40;99.90
4856;DHT22;2442;48.676;7.986;2022-09-29T15:51:54;15.30;99.90
4856;DHT22;2442;48.676;7.986;2022-09-29T15:54:23;15.30;99.90
4856;DHT22;2442;48.676;7.986;2022-09-29T15:56:52;15.10;99.90
4856;DHT22;2442;48.676;7.986;2022-09-29T15:59:39;14.80;99.90
4856;DHT22;2442;48.676;7.986;2022-09-29T16:02:14;14.40;99.90
4856;DHT22;2442;48.676;7.986;2022-09-29T16:04:47;14.30;99.90
4856;DHT22;2442;48.676;7.986;2022-09-29T16:07:19;14.20;99.90
4856;DHT22;2442;48.676;7.986;2022-09-29T16:09:49;14.10;99.90
4856;DHT22;2442;48.676;7.986;2022-09-29T16:12:19;14.00;99.90
4856;DHT22;2442;48.676;7.986;2022-09-29T16:14:47;14.00;99.90
4856;DHT22;2442;48.676;7.986;2022-09-29T16:17:19;14.00;99.90
4856;DHT22;2442;48.676;7.986;2022-09-29T16:19:47;13.90;99.90
4856;DHT22;2442;48.676;7.986;2022-09-29T16:22:19;13.80;99.90
4856;DHT22;2442;48.676;7.986;2022-09-29T16:24:54;13.70;99.90
4856;DHT22;2442;48.676;7.986;2022-09-29T16:27:50;13.70;99.90
4856;DHT22;2442;48.676;7.986;2022-09-29T16:30:25;13.50;99.90
4856;DHT22;2442;48.676;7.986;2022-09-29T16:32:55;13.20;99.90
4856;DHT22;2442;48.676;7.986;2022-09-29T16:35:45;13.00;99.90
4856;DHT22;2442;48.676;7.986;2022-09-29T16:38:33;12.80;99.90
4856;DHT22;2442;48.676;7.986;2022-09-29T16:41:10;12.60;99.90
4856;DHT22;2442;48.676;7.986;2022-09-29T16:43:43;12.50;99.90
4856;DHT22;2442;48.676;7.986;2022-09-29T16:46:15;12.40;99.90
4856;DHT22;2442;48.676;7.986;2022-09-29T16:48:44;12.40;99.90
4856;DHT22;2442;48.676;7.986;2022-09-29T16:51:16;12.30;99.90
4856;DHT22;2442;48.676;7.986;2022-09-29T16:53:44;12.30;99.90
4856;DHT22;2442;48.676;7.986;2022-09-29T16:56:16;12.30;99.90
4856;DHT22;2442;48.676;7.986;2022-09-29T16:59:01;12.20;99.90
4856;DHT22;2442;48.676;7.986;2022-09-29T17:01:35;12.20;99.90
4856;DHT22;2442;48.676;7.986;2022-09-29T17:04:02;12.20;99.90
4856;DHT22;2442;48.676;7.986;2022-09-29T17:06:29;12.10;99.90
4856;DHT22;2442;48.676;7.986;2022-09-29T17:08:56;12.10;99.90
4856;DHT22;2442;48.676;7.986;2022-09-29T17:11:24;12.00;99.90
4856;DHT22;2442;48.676;7.986;2022-09-29T17:13:53;11.90;99.90
4856;DHT22;2442;48.676;7.986;2022-09-29T17:16:22;11.90;99.90
4856;DHT22;2442;48.676;7.986;2022-09-29T17:18:51;11.80;99.90